JAL2403 RJOO-RJFK
Flight info
| Callsign | JAL2403 |
|---|---|
| Flight time | N/A |
| Altitude | 32000 |
| Route | TIGER MAIKO AWAJI Y232 KRE Y756 VIRUD Y757 SPICA |
| Aircraft | E190/M-SDE3GILORVW/S |
Departure
| Time | 2026-04-30 12:57 |
|---|---|
| Airport | Osaka Itami International Airport (RJOO) |
Arrival
| Time | N/A |
|---|---|
| Airport | Kagoshima Airport (RJFK) |
| Time | Latitude | Longitude | Altitude | Speed | Heading |
|---|---|---|---|---|---|
| 2026-04-30 12:34 | 34.79269 | 135.43709 | 47 ft | 0 kts | 161° |
| 2026-04-30 12:50 | 34.79281 | 135.43702 | 47 ft | 3 kts | 176° |
| 2026-04-30 12:50 | 34.79292 | 135.43698 | 47 ft | 4 kts | 234° |
| 2026-04-30 12:50 | 34.79304 | 135.43707 | 47 ft | 4 kts | 182° |
| 2026-04-30 12:51 | 34.79331 | 135.43704 | 47 ft | 4 kts | 174° |
| 2026-04-30 12:51 | 34.79345 | 135.43706 | 47 ft | 1 kts | 234° |
| 2026-04-30 12:51 | 34.79347 | 135.43709 | 47 ft | 0 kts | 234° |
| 2026-04-30 12:53 | 34.79346 | 135.43708 | 47 ft | 1 kts | 234° |
| 2026-04-30 12:53 | 34.79331 | 135.43681 | 47 ft | 7 kts | 237° |
| 2026-04-30 12:53 | 34.79309 | 135.43623 | 47 ft | 9 kts | 248° |
| 2026-04-30 12:54 | 34.79282 | 135.43549 | 47 ft | 10 kts | 243° |
| 2026-04-30 12:54 | 34.79239 | 135.43470 | 47 ft | 12 kts | 242° |
| 2026-04-30 12:54 | 34.79259 | 135.43374 | 44 ft | 13 kts | 311° |
| 2026-04-30 12:54 | 34.79328 | 135.43288 | 46 ft | 15 kts | 315° |
| 2026-04-30 12:55 | 34.79386 | 135.43196 | 47 ft | 11 kts | 278° |
| 2026-04-30 12:55 | 34.79386 | 135.43184 | 47 ft | 2 kts | 274° |
| 2026-04-30 12:55 | 34.79383 | 135.43170 | 47 ft | 4 kts | 250° |
| 2026-04-30 12:55 | 34.79351 | 135.43119 | 46 ft | 11 kts | 227° |
| 2026-04-30 12:56 | 34.79290 | 135.43040 | 46 ft | 14 kts | 226° |
| 2026-04-30 12:56 | 34.79218 | 135.42952 | 46 ft | 16 kts | 225° |
| 2026-04-30 12:56 | 34.79116 | 135.42921 | 48 ft | 17 kts | 162° |
| 2026-04-30 12:56 | 34.78987 | 135.43057 | 49 ft | 40 kts | 134° |
| 2026-04-30 12:57 | 34.78592 | 135.43532 | 45 ft | 120 kts | 134° |
| 2026-04-30 12:57 | 34.77879 | 135.44444 | 327 ft | 165 kts | 131° |
| 2026-04-30 12:57 | 34.76968 | 135.45459 | 922 ft | 199 kts | 143° |
| 2026-04-30 12:57 | 34.75570 | 135.45881 | 684 ft | 221 kts | 182° |
| 2026-04-30 12:58 | 34.74100 | 135.45132 | 561 ft | 241 kts | 220° |
| 2026-04-30 12:58 | 34.73224 | 135.43457 | 821 ft | 238 kts | 255° |
| 2026-04-30 12:58 | 34.73231 | 135.41509 | 1096 ft | 221 kts | 283° |
| 2026-04-30 12:58 | 34.73575 | 135.39756 | 1350 ft | 217 kts | 286° |
| 2026-04-30 12:59 | 34.73742 | 135.37886 | 1647 ft | 231 kts | 268° |
| 2026-04-30 12:59 | 34.73563 | 135.35924 | 1943 ft | 233 kts | 259° |
| 2026-04-30 12:59 | 34.73242 | 135.34009 | 2250 ft | 232 kts | 255° |
| 2026-04-30 12:59 | 34.72814 | 135.32110 | 2640 ft | 231 kts | 247° |
| 2026-04-30 13:00 | 34.72223 | 135.30172 | 3070 ft | 256 kts | 245° |
| 2026-04-30 13:00 | 34.71556 | 135.28076 | 3512 ft | 280 kts | 244° |
| 2026-04-30 13:00 | 34.70858 | 135.25867 | 3918 ft | 276 kts | 244° |
| 2026-04-30 13:00 | 34.70180 | 135.23736 | 4295 ft | 274 kts | 244° |
| 2026-04-30 13:01 | 34.69481 | 135.21556 | 4679 ft | 276 kts | 244° |
| 2026-04-30 13:01 | 34.68802 | 135.19385 | 5055 ft | 277 kts | 244° |
| 2026-04-30 13:01 | 34.68077 | 135.17205 | 5446 ft | 276 kts | 240° |
| 2026-04-30 13:01 | 34.67263 | 135.15116 | 5830 ft | 276 kts | 239° |
| 2026-04-30 13:02 | 34.66420 | 135.12999 | 6323 ft | 277 kts | 239° |
| 2026-04-30 13:02 | 34.65586 | 135.10900 | 6875 ft | 280 kts | 239° |
| 2026-04-30 13:02 | 34.64740 | 135.08761 | 7416 ft | 278 kts | 239° |
| 2026-04-30 13:02 | 34.63885 | 135.06633 | 7939 ft | 286 kts | 238° |
| 2026-04-30 13:03 | 34.63004 | 135.04449 | 8489 ft | 286 kts | 239° |
| 2026-04-30 13:03 | 34.62029 | 135.02385 | 8995 ft | 282 kts | 227° |
| 2026-04-30 13:03 | 34.60713 | 135.00608 | 9521 ft | 282 kts | 220° |
| 2026-04-30 13:03 | 34.59289 | 134.98998 | 10037 ft | 280 kts | 217° |
| 2026-04-30 13:04 | 34.57786 | 134.97424 | 10549 ft | 292 kts | 218° |
| 2026-04-30 13:04 | 34.56205 | 134.95806 | 11088 ft | 305 kts | 218° |
| 2026-04-30 13:04 | 34.54520 | 134.94218 | 11859 ft | 306 kts | 214° |
| 2026-04-30 13:04 | 34.52753 | 134.92730 | 12486 ft | 314 kts | 216° |
| 2026-04-30 13:05 | 34.50938 | 134.91190 | 12959 ft | 322 kts | 216° |
| 2026-04-30 13:05 | 34.49101 | 134.89649 | 13577 ft | 327 kts | 215° |
| 2026-04-30 13:05 | 34.47172 | 134.88040 | 14364 ft | 338 kts | 215° |
| 2026-04-30 13:06 | 34.43234 | 134.84764 | 16500 ft | 349 kts | 215° |
| 2026-04-30 13:06 | 34.41225 | 134.83089 | 17462 ft | 355 kts | 215° |
| 2026-04-30 13:06 | 34.39163 | 134.81373 | 18391 ft | 360 kts | 215° |
| 2026-04-30 13:06 | 34.37090 | 134.79648 | 19272 ft | 366 kts | 215° |
| 2026-04-30 13:07 | 34.35026 | 134.77945 | 20184 ft | 354 kts | 217° |
| 2026-04-30 13:07 | 34.33024 | 134.76260 | 21519 ft | 343 kts | 216° |
| 2026-04-30 13:07 | 34.31089 | 134.74656 | 22684 ft | 336 kts | 216° |
| 2026-04-30 13:07 | 34.29226 | 134.72928 | 23486 ft | 337 kts | 221° |
| 2026-04-30 13:08 | 34.27502 | 134.71012 | 24092 ft | 340 kts | 224° |
| 2026-04-30 13:08 | 34.25781 | 134.69002 | 24687 ft | 343 kts | 224° |
| 2026-04-30 13:08 | 34.24097 | 134.66975 | 25265 ft | 346 kts | 226° |
| 2026-04-30 13:08 | 34.22517 | 134.64781 | 25818 ft | 349 kts | 229° |
| 2026-04-30 13:09 | 34.20937 | 134.62550 | 26372 ft | 351 kts | 229° |
| 2026-04-30 13:09 | 34.19350 | 134.60273 | 26918 ft | 354 kts | 229° |
| 2026-04-30 13:09 | 34.17769 | 134.58005 | 27425 ft | 356 kts | 230° |
| 2026-04-30 13:09 | 34.16154 | 134.55690 | 27924 ft | 359 kts | 230° |
| 2026-04-30 13:10 | 34.14544 | 134.53382 | 28406 ft | 362 kts | 230° |
| 2026-04-30 13:10 | 34.12921 | 134.51059 | 28877 ft | 365 kts | 230° |
| 2026-04-30 13:10 | 34.11267 | 134.48694 | 29384 ft | 366 kts | 230° |
| 2026-04-30 13:10 | 34.09638 | 134.46366 | 29990 ft | 365 kts | 230° |
| 2026-04-30 13:11 | 34.07996 | 134.44022 | 30560 ft | 361 kts | 230° |
| 2026-04-30 13:11 | 34.06388 | 134.41727 | 31168 ft | 357 kts | 230° |
| 2026-04-30 13:11 | 34.04797 | 134.39462 | 31691 ft | 354 kts | 231° |
| 2026-04-30 13:11 | 34.03182 | 134.37152 | 31815 ft | 362 kts | 231° |
| 2026-04-30 13:12 | 34.01547 | 134.34824 | 31895 ft | 371 kts | 230° |
| 2026-04-30 13:12 | 33.98134 | 134.29971 | 31934 ft | 389 kts | 230° |
| 2026-04-30 13:13 | 33.94552 | 134.24883 | 31943 ft | 404 kts | 230° |
| 2026-04-30 13:13 | 33.92738 | 134.22320 | 31923 ft | 404 kts | 230° |
| 2026-04-30 13:13 | 33.89173 | 134.17251 | 31901 ft | 386 kts | 230° |
| 2026-04-30 13:14 | 33.87465 | 134.14834 | 31919 ft | 378 kts | 231° |
| 2026-04-30 13:14 | 33.82514 | 134.07831 | 31920 ft | 360 kts | 230° |
| 2026-04-30 13:15 | 33.77597 | 134.00891 | 31920 ft | 367 kts | 231° |
| 2026-04-30 13:16 | 33.74261 | 133.96186 | 31910 ft | 371 kts | 231° |
| 2026-04-30 13:16 | 33.70903 | 133.91462 | 31916 ft | 376 kts | 230° |
| 2026-04-30 13:17 | 33.65768 | 133.84250 | 31959 ft | 383 kts | 230° |
| 2026-04-30 13:18 | 33.60515 | 133.76883 | 31884 ft | 388 kts | 230° |
| 2026-04-30 13:18 | 33.55270 | 133.69484 | 31849 ft | 390 kts | 230° |
| 2026-04-30 13:19 | 33.51557 | 133.64724 | 31859 ft | 392 kts | 228° |
| 2026-04-30 13:19 | 33.47796 | 133.60023 | 31839 ft | 378 kts | 227° |
| 2026-04-30 13:20 | 33.44206 | 133.55540 | 31857 ft | 378 kts | 228° |
| 2026-04-30 13:20 | 33.40522 | 133.50946 | 31871 ft | 386 kts | 227° |
| 2026-04-30 13:21 | 33.36822 | 133.46337 | 31869 ft | 382 kts | 227° |
| 2026-04-30 13:22 | 33.31294 | 133.39460 | 31875 ft | 382 kts | 227° |
| 2026-04-30 13:22 | 33.25773 | 133.32606 | 31895 ft | 382 kts | 227° |
| 2026-04-30 13:23 | 33.20255 | 133.25767 | 31876 ft | 381 kts | 227° |
| 2026-04-30 13:24 | 33.12886 | 133.16657 | 31868 ft | 381 kts | 227° |
| 2026-04-30 13:25 | 33.05533 | 133.07589 | 31896 ft | 381 kts | 227° |
| 2026-04-30 13:26 | 32.96329 | 132.96271 | 31869 ft | 380 kts | 227° |
| 2026-04-30 13:28 | 32.87113 | 132.84975 | 31916 ft | 380 kts | 227° |
| 2026-04-30 13:28 | 32.82227 | 132.79002 | 31901 ft | 378 kts | 227° |